Station Historical Data
Daily Summary for July 23, 2012 Units:  Both    English   Metric
« Previous Day
Next Day »
Daily Weekly Monthly Yearly Custom
  High: Low: Average:
Temperature: 90.6 °F /  32.6 °C 71.1 °F /  21.7 °C 81.1 °F /  27.3 °C
Dew Point: 76.8 °F /  24.9 °C 68.7 °F /  20.4 °C 73.4 °F /  23 °C
Humidity: 92% 57% 79%
Wind Speed: 10.0mph /  16.1km/h - 2.2mph /  3.5km/h
Wind Gust: 12.0mph /  19.3km/h - -
Wind- - SSW
Pressure: 30.16 in /  1021.2 hPa 30.02 in /  1016.5 hPa -
Precipitation: 0.00 in /  0 mm    
Historical Graphs
 
 
Tabular Data for July 23, 2012
Time Temperature Dew Point Pressure Wind Wind Speed Wind Gust Humidity Rainfall Rate (Hourly) Conditions
00:00 75.9 °F /  24.4 °C 73.1 °F /  22.8 °C 30.10in /  1019.2hPa SE 3.0mph /  4.8km/h 4.0mph /  6.4km/h 91% 0.00in /  0mm
00:01 75.9 °F /  24.4 °C 73.1 °F /  22.8 °C 30.10in /  1019.2hPa SSE 4.0mph /  6.4km/h 4.0mph /  6.4km/h 91% 0.00in /  0mm
00:06 76.0 °F /  24.4 °C 73.2 °F /  22.9 °C 30.10in /  1019.2hPa South 1.0mph /  1.6km/h 2.0mph /  3.2km/h 91% 0.00in /  0mm
00:11 76.1 °F /  24.5 °C 73.3 °F /  22.9 °C 30.10in /  1019.2hPa SSW 1.0mph /  1.6km/h 2.0mph /  3.2km/h 91% 0.00in /  0mm
00:16 76.2 °F /  24.6 °C 73.4 °F /  23 °C 30.11in /  1019.5hPa South 1.0mph /  1.6km/h 3.0mph /  4.8km/h 91% 0.00in /  0mm
00:21 76.2 °F /  24.6 °C 73.4 °F /  23 °C 30.10in /  1019.2hPa SSE 2.0mph /  3.2km/h 3.0mph /  4.8km/h 91% 0.00in /  0mm
00:26 76.2 °F /  24.6 °C 73.4 °F /  23 °C 30.10in /  1019.2hPa SSE 2.0mph /  3.2km/h 3.0mph /  4.8km/h 91% 0.00in /  0mm
00:31 76.1 °F /  24.5 °C 73.0 °F /  22.8 °C 30.10in /  1019.2hPa SSE 2.0mph /  3.2km/h 4.0mph /  6.4km/h 90% 0.00in /  0mm
00:36 75.7 °F /  24.3 °C 72.9 °F /  22.7 °C 30.10in /  1019.2hPa SSE 3.0mph /  4.8km/h 3.0mph /  4.8km/h 91% 0.00in /  0mm
00:41 75.5 °F /  24.2 °C 72.7 °F /  22.6 °C 30.10in /  1019.2hPa SE 1.0mph /  1.6km/h 2.0mph /  3.2km/h 91% 0.00in /  0mm
00:47 75.4 °F /  24.1 °C 72.6 °F /  22.6 °C 30.10in /  1019.2hPa SSE 1.0mph /  1.6km/h 2.0mph /  3.2km/h 91% 0.00in /  0mm
00:51 75.3 °F /  24.1 °C 72.8 °F /  22.7 °C 30.10in /  1019.2hPa SSE 2.0mph /  3.2km/h 2.0mph /  3.2km/h 92% 0.00in /  0mm
00:56 75.3 °F /  24.1 °C 72.8 °F /  22.7 °C 30.10in /  1019.2hPa SSE 1.0mph /  1.6km/h 2.0mph /  3.2km/h 92% 0.00in /  0mm
01:02 75.1 °F /  23.9 °C 72.6 °F /  22.6 °C 30.10in /  1019.2hPa SSE 1.0mph /  1.6km/h 2.0mph /  3.2km/h 92% 0.00in /  0mm
01:07 75.1 °F /  23.9 °C 72.6 °F /  22.6 °C 30.10in /  1019.2hPa SE 1.0mph /  1.6km/h 2.0mph /  3.2km/h 92% 0.00in /  0mm
01:11 75.0 °F /  23.9 °C 72.5 °F /  22.5 °C 30.10in /  1019.2hPa Calm   2.0mph /  3.2km/h 92% 0.00in /  0mm
01:17 74.9 °F /  23.8 °C 72.4 °F /  22.4 °C 30.10in /  1019.2hPa Calm     92% 0.00in /  0mm
01:22 74.6 °F /  23.7 °C 72.1 °F /  22.3 °C 30.10in /  1019.2hPa Calm     92% 0.00in /  0mm
01:27 74.4 °F /  23.6 °C 71.9 °F /  22.2 °C 30.10in /  1019.2hPa Calm     92% 0.00in /  0mm
01:32 74.4 °F /  23.6 °C 71.9 °F /  22.2 °C 30.10in /  1019.2hPa SE 1.0mph /  1.6km/h 1.0mph /  1.6km/h 92% 0.00in /  0mm
01:37 74.3 °F /  23.5 °C 71.8 °F /  22.1 °C 30.09in /  1018.8hPa SE 1.0mph /  1.6km/h 1.0mph /  1.6km/h 92% 0.00in /  0mm
01:42 74.2 °F /  23.4 °C 71.7 °F /  22.1 °C 30.09in /  1018.8hPa SSE 2.0mph /  3.2km/h 2.0mph /  3.2km/h 92% 0.00in /  0mm
01:47 74.1 °F /  23.4 °C 71.6 °F /  22 °C 30.09in /  1018.8hPa SSE 2.0mph /  3.2km/h 2.0mph /  3.2km/h 92% 0.00in /  0mm
01:52 74.2 °F /  23.4 °C 71.7 °F /  22.1 °C 30.09in /  1018.8hPa SSE 2.0mph /  3.2km/h 3.0mph /  4.8km/h 92% 0.00in /  0mm
01:57 74.4 °F /  23.6 °C 71.9 °F /  22.2 °C 30.09in /  1018.8hPa SE 2.0mph /  3.2km/h 2.0mph /  3.2km/h 92% 0.00in /  0mm
02:02 74.6 °F /  23.7 °C 72.1 °F /  22.3 °C 30.09in /  1018.8hPa SE 2.0mph /  3.2km/h 3.0mph /  4.8km/h 92% 0.00in /  0mm
02:07 74.8 °F /  23.8 °C 72.3 °F /  22.4 °C 30.09in /  1018.8hPa SSW 1.0mph /  1.6km/h 2.0mph /  3.2km/h 92% 0.00in /  0mm
02:12 75.0 °F /  23.9 °C 72.5 °F /  22.5 °C 30.09in /  1018.8hPa SE 1.0mph /  1.6km/h 2.0mph /  3.2km/h 92% 0.00in /  0mm
02:17 74.9 °F /  23.8 °C 72.4 °F /  22.4 °C 30.09in /  1018.8hPa SSE 1.0mph /  1.6km/h 2.0mph /  3.2km/h 92% 0.00in /  0mm
02:22 74.8 °F /  23.8 °C 72.3 °F /  22.4 °C 30.09in /  1018.8hPa SE 1.0mph /  1.6km/h 2.0mph /  3.2km/h 92% 0.00in /  0mm
02:27 74.8 °F /  23.8 °C 72.3 °F /  22.4 °C 30.09in /  1018.8hPa SSW 1.0mph /  1.6km/h 2.0mph /  3.2km/h 92% 0.00in /  0mm
02:32 74.9 °F /  23.8 °C 72.4 °F /  22.4 °C 30.09in /  1018.8hPa Calm     92% 0.00in /  0mm
02:37 74.7 °F /  23.7 °C 72.2 °F /  22.3 °C 30.09in /  1018.8hPa SSW 1.0mph /  1.6km/h 1.0mph /  1.6km/h 92% 0.00in /  0mm
02:42 74.6 °F /  23.7 °C 72.1 °F /  22.3 °C 30.09in /  1018.8hPa SSW 1.0mph /  1.6km/h 1.0mph /  1.6km/h 92% 0.00in /  0mm
02:47 74.4 °F /  23.6 °C 71.9 °F /  22.2 °C 30.09in /  1018.8hPa SSW 1.0mph /  1.6km/h 1.0mph /  1.6km/h 92% 0.00in /  0mm
02:52 74.1 °F /  23.4 °C 71.6 °F /  22 °C 30.09in /  1018.8hPa Calm     92% 0.00in /  0mm
02:57 73.8 °F /  23.2 °C 71.3 °F /  21.8 °C 30.09in /  1018.8hPa Calm     92% 0.00in /  0mm
03:02 73.8 °F /  23.2 °C 71.3 °F /  21.8 °C 30.09in /  1018.8hPa SSW 1.0mph /  1.6km/h 1.0mph /  1.6km/h 92% 0.00in /  0mm
03:07 73.8 °F /  23.2 °C 71.3 °F /  21.8 °C 30.09in /  1018.8hPa SE 1.0mph /  1.6km/h 2.0mph /  3.2km/h 92% 0.00in /  0mm
03:12 73.8 °F /  23.2 °C 71.3 °F /  21.8 °C 30.09in /  1018.8hPa SE 1.0mph /  1.6km/h 1.0mph /  1.6km/h 92% 0.00in /  0mm
03:17 73.8 °F /  23.2 °C 71.3 °F /  21.8 °C 30.09in /  1018.8hPa Calm     92% 0.00in /  0mm
03:22 73.7 °F /  23.2 °C 71.2 °F /  21.8 °C 30.09in /  1018.8hPa Calm     92% 0.00in /  0mm
03:28 73.6 °F /  23.1 °C 71.1 °F /  21.7 °C 30.09in /  1018.8hPa Calm     92% 0.00in /  0mm
03:33 73.4 °F /  23 °C 70.9 °F /  21.6 °C 30.09in /  1018.8hPa Calm     92% 0.00in /  0mm
03:38 73.5 °F /  23.1 °C 71.0 °F /  21.7 °C 30.09in /  1018.8hPa SE 1.0mph /  1.6km/h 1.0mph /  1.6km/h 92% 0.00in /  0mm
03:43 73.6 °F /  23.1 °C 71.1 °F /  21.7 °C 30.09in /  1018.8hPa Calm     92% 0.00in /  0mm
03:48 73.5 °F /  23.1 °C 71.0 °F /  21.7 °C 30.09in /  1018.8hPa Calm     92% 0.00in /  0mm
03:53 73.3 °F /  22.9 °C 70.8 °F /  21.6 °C 30.09in /  1018.8hPa Calm     92% 0.00in /  0mm
03:58 73.3 °F /  22.9 °C 70.8 °F /  21.6 °C 30.09in /  1018.8hPa Calm     92% 0.00in /  0mm
04:03 73.3 °F /  22.9 °C 70.8 °F /  21.6 °C 30.09in /  1018.8hPa SSE 1.0mph /  1.6km/h 2.0mph /  3.2km/h 92% 0.00in /  0mm
04:08 73.5 °F /  23.1 °C 71.0 °F /  21.7 °C 30.09in /  1018.8hPa Calm   1.0mph /  1.6km/h 92% 0.00in /  0mm
04:13 73.5 °F /  23.1 °C 71.0 °F /  21.7 °C 30.10in /  1019.2hPa Calm     92% 0.00in /  0mm
04:18 73.3 °F /  22.9 °C 70.8 °F /  21.6 °C 30.10in /  1019.2hPa Calm     92% 0.00in /  0mm
04:23 73.3 °F /  22.9 °C 70.8 °F /  21.6 °C 30.10in /  1019.2hPa Calm     92% 0.00in /  0mm
04:28 73.3 °F /  22.9 °C 70.8 °F /  21.6 °C 30.10in /  1019.2hPa Calm     92% 0.00in /  0mm
04:33 73.3 °F /  22.9 °C 70.8 °F /  21.6 °C 30.10in /  1019.2hPa Calm     92% 0.00in /  0mm
04:38 73.2 °F /  22.9 °C 70.7 °F /  21.5 °C 30.10in /  1019.2hPa Calm     92% 0.00in /  0mm
04:43 73.2 °F /  22.9 °C 70.7 °F /  21.5 °C 30.11in /  1019.5hPa Calm     92% 0.00in /  0mm
04:48 73.2 °F /  22.9 °C 70.7 °F /  21.5 °C 30.11in /  1019.5hPa Calm     92% 0.00in /  0mm
04:53 73.1 °F /  22.8 °C 70.6 °F /  21.4 °C 30.11in /  1019.5hPa Calm     92% 0.00in /  0mm
04:58 73.0 °F /  22.8 °C 70.5 °F /  21.4 °C 30.11in /  1019.5hPa Calm     92% 0.00in /  0mm
05:03 73.0 °F /  22.8 °C 70.5 °F /  21.4 °C 30.11in /  1019.5hPa Calm     92% 0.00in /  0mm
05:08 72.9 °F /  22.7 °C 70.4 °F /  21.3 °C 30.10in /  1019.2hPa Calm     92% 0.00in /  0mm
05:13 72.7 °F /  22.6 °C 70.2 °F /  21.2 °C 30.10in /  1019.2hPa Calm     92% 0.00in /  0mm
05:18 72.6 °F /  22.6 °C 70.2 °F /  21.2 °C 30.11in /  1019.5hPa Calm     92% 0.00in /  0mm
05:23 72.5 °F /  22.5 °C 70.1 °F /  21.2 °C 30.10in /  1019.2hPa Calm     92% 0.00in /  0mm
05:29 72.5 °F /  22.5 °C 70.1 °F /  21.2 °C 30.10in /  1019.2hPa Calm     92% 0.00in /  0mm
05:34 72.4 °F /  22.4 °C 69.9 °F /  21.1 °C 30.10in /  1019.2hPa Calm     92% 0.00in /  0mm
05:39 72.3 °F /  22.4 °C 69.8 °F /  21 °C 30.10in /  1019.2hPa Calm     92% 0.00in /  0mm
05:44 72.2 °F /  22.3 °C 69.8 °F /  21 °C 30.10in /  1019.2hPa Calm     92% 0.00in /  0mm
05:49 72.2 °F /  22.3 °C 69.8 °F /  21 °C 30.10in /  1019.2hPa Calm     92% 0.00in /  0mm
05:54 72.2 °F /  22.3 °C 69.8 °F /  21 °C 30.10in /  1019.2hPa Calm     92% 0.00in /  0mm
05:59 72.0 °F /  22.2 °C 69.6 °F /  20.9 °C 30.10in /  1019.2hPa Calm     92% 0.00in /  0mm
06:04 72.2 °F /  22.3 °C 69.8 °F /  21 °C 30.10in /  1019.2hPa Calm     92% 0.00in /  0mm
06:09 72.1 °F /  22.3 °C 69.7 °F /  20.9 °C 30.10in /  1019.2hPa Calm     92% 0.00in /  0mm
06:14 71.8 °F /  22.1 °C 69.3 °F /  20.7 °C 30.11in /  1019.5hPa Calm     92% 0.00in /  0mm
06:19 71.7 °F /  22.1 °C 69.3 °F /  20.7 °C 30.11in /  1019.5hPa Calm     92% 0.00in /  0mm
06:24 71.6 °F /  22 °C 69.2 °F /  20.7 °C 30.11in /  1019.5hPa Calm     92% 0.00in /  0mm
06:29 71.5 °F /  21.9 °C 69.1 °F /  20.6 °C 30.11in /  1019.5hPa Calm     92% 0.00in /  0mm
06:34 71.5 °F /  21.9 °C 69.1 °F /  20.6 °C 30.11in /  1019.5hPa NNW 1.0mph /  1.6km/h 2.0mph /  3.2km/h 92% 0.00in /  0mm
06:39 71.4 °F /  21.9 °C 69.0 °F /  20.6 °C 30.11in /  1019.5hPa Calm   1.0mph /  1.6km/h 92% 0.00in /  0mm
06:44 71.3 °F /  21.8 °C 68.9 °F /  20.5 °C 30.12in /  1019.9hPa NNW 1.0mph /  1.6km/h 1.0mph /  1.6km/h 92% 0.00in /  0mm
06:49 71.2 °F /  21.8 °C 68.8 °F /  20.4 °C 30.12in /  1019.9hPa SE 1.0mph /  1.6km/h 1.0mph /  1.6km/h 92% 0.00in /  0mm
06:54 71.2 °F /  21.8 °C 68.8 °F /  20.4 °C 30.12in /  1019.9hPa SE 1.0mph /  1.6km/h 1.0mph /  1.6km/h 92% 0.00in /  0mm
06:59 71.2 °F /  21.8 °C 68.8 °F /  20.4 °C 30.12in /  1019.9hPa SE 1.0mph /  1.6km/h 1.0mph /  1.6km/h 92% 0.00in /  0mm
07:04 71.1 °F /  21.7 °C 68.7 °F /  20.4 °C 30.12in /  1019.9hPa Calm   1.0mph /  1.6km/h 92% 0.00in /  0mm
07:09 71.1 °F /  21.7 °C 68.7 °F /  20.4 °C 30.12in /  1019.9hPa Calm     92% 0.00in /  0mm
07:14 71.2 °F /  21.8 °C 68.8 °F /  20.4 °C 30.12in /  1019.9hPa Calm     92% 0.00in /  0mm
07:19 71.3 °F /  21.8 °C 68.9 °F /  20.5 °C 30.12in /  1019.9hPa Calm     92% 0.00in /  0mm
07:24 71.5 °F /  21.9 °C 69.1 °F /  20.6 °C 30.12in /  1019.9hPa Calm     92% 0.00in /  0mm
07:29 71.7 °F /  22.1 °C 69.3 °F /  20.7 °C 30.12in /  1019.9hPa Calm     92% 0.00in /  0mm
07:34 72.2 °F /  22.3 °C 69.8 °F /  21 °C 30.12in /  1019.9hPa Calm     92% 0.00in /  0mm
07:39 72.6 °F /  22.6 °C 70.2 °F /  21.2 °C 30.12in /  1019.9hPa SE 1.0mph /  1.6km/h 2.0mph /  3.2km/h 92% 0.00in /  0mm
07:44 73.0 °F /  22.8 °C 70.5 °F /  21.4 °C 30.13in /  1020.2hPa SSE 1.0mph /  1.6km/h 2.0mph /  3.2km/h 92% 0.00in /  0mm
07:49 73.7 °F /  23.2 °C 71.2 °F /  21.8 °C 30.13in /  1020.2hPa SE 2.0mph /  3.2km/h 2.0mph /  3.2km/h 92% 0.00in /  0mm
07:54 74.3 °F /  23.5 °C 71.8 °F /  22.1 °C 30.13in /  1020.2hPa SSE 1.0mph /  1.6km/h 2.0mph /  3.2km/h 92% 0.00in /  0mm
07:59 75.1 °F /  23.9 °C 72.6 °F /  22.6 °C 30.13in /  1020.2hPa SSE 1.0mph /  1.6km/h 1.0mph /  1.6km/h 92% 0.00in /  0mm
08:04 75.6 °F /  24.2 °C 73.1 °F /  22.8 °C 30.14in /  1020.5hPa SSW 1.0mph /  1.6km/h 2.0mph /  3.2km/h 92% 0.00in /  0mm
08:09 76.1 °F /  24.5 °C 73.6 °F /  23.1 °C 30.14in /  1020.5hPa SSW 2.0mph /  3.2km/h 3.0mph /  4.8km/h 92% 0.00in /  0mm
08:14 76.6 °F /  24.8 °C 73.8 °F /  23.2 °C 30.14in /  1020.5hPa SSW 1.0mph /  1.6km/h 3.0mph /  4.8km/h 91% 0.00in /  0mm
08:20 76.8 °F /  24.9 °C 74.0 °F /  23.3 °C 30.15in /  1020.9hPa SSW 2.0mph /  3.2km/h 3.0mph /  4.8km/h 91% 0.00in /  0mm
08:25 77.0 °F /  25 °C 73.8 °F /  23.2 °C 30.14in /  1020.5hPa SW 2.0mph /  3.2km/h 3.0mph /  4.8km/h 90% 0.00in /  0mm
08:30 77.3 °F /  25.2 °C 74.1 °F /  23.4 °C 30.14in /  1020.5hPa SW 1.0mph /  1.6km/h 2.0mph /  3.2km/h 90% 0.00in /  0mm
08:35 77.6 °F /  25.3 °C 74.4 °F /  23.6 °C 30.15in /  1020.9hPa SSW 2.0mph /  3.2km/h 2.0mph /  3.2km/h 90% 0.00in /  0mm
08:40 77.7 °F /  25.4 °C 74.2 °F /  23.4 °C 30.15in /  1020.9hPa South 1.0mph /  1.6km/h 3.0mph /  4.8km/h 89% 0.00in /  0mm
08:45 77.9 °F /  25.5 °C 74.4 °F /  23.6 °C 30.15in /  1020.9hPa Calm   4.0mph /  6.4km/h 89% 0.00in /  0mm
08:50 78.0 °F /  25.6 °C 74.5 °F /  23.6 °C 30.15in /  1020.9hPa SSW 2.0mph /  3.2km/h 4.0mph /  6.4km/h 89% 0.00in /  0mm
08:55 78.1 °F /  25.6 °C 74.6 °F /  23.7 °C 30.15in /  1020.9hPa SW 3.0mph /  4.8km/h 5.0mph /  8km/h 89% 0.00in /  0mm
09:00 78.1 °F /  25.6 °C 74.6 °F /  23.7 °C 30.15in /  1020.9hPa SSW 4.0mph /  6.4km/h 6.0mph /  9.7km/h 89% 0.00in /  0mm
09:05 78.0 °F /  25.6 °C 74.2 °F /  23.4 °C 30.16in /  1021.2hPa WSW 4.0mph /  6.4km/h 6.0mph /  9.7km/h 88% 0.00in /  0mm
09:10 78.3 °F /  25.7 °C 74.8 °F /  23.8 °C 30.16in /  1021.2hPa SSW 3.0mph /  4.8km/h 7.0mph /  11.3km/h 89% 0.00in /  0mm
09:15 78.6 °F /  25.9 °C 74.8 °F /  23.8 °C 30.16in /  1021.2hPa WSW 4.0mph /  6.4km/h 6.0mph /  9.7km/h 88% 0.00in /  0mm
09:20 78.8 °F /  26 °C 74.9 °F /  23.8 °C 30.16in /  1021.2hPa SW 5.0mph /  8km/h 5.0mph /  8km/h 88% 0.00in /  0mm
09:25 78.8 °F /  26 °C 74.9 °F /  23.8 °C 30.16in /  1021.2hPa WSW 6.0mph /  9.7km/h 6.0mph /  9.7km/h 88% 0.00in /  0mm
09:30 78.9 °F /  26.1 °C 74.7 °F /  23.7 °C 30.16in /  1021.2hPa West 3.0mph /  4.8km/h 5.0mph /  8km/h 87% 0.00in /  0mm
09:35 79.3 °F /  26.3 °C 75.1 °F /  23.9 °C 30.16in /  1021.2hPa West 4.0mph /  6.4km/h 7.0mph /  11.3km/h 87% 0.00in /  0mm
09:40 79.4 °F /  26.3 °C 75.5 °F /  24.2 °C 30.16in /  1021.2hPa West 2.0mph /  3.2km/h 6.0mph /  9.7km/h 88% 0.00in /  0mm
09:45 79.7 °F /  26.5 °C 75.2 °F /  24 °C 30.16in /  1021.2hPa WSW 6.0mph /  9.7km/h 6.0mph /  9.7km/h 86% 0.00in /  0mm
09:50 79.9 °F /  26.6 °C 75.3 °F /  24.1 °C 30.15in /  1020.9hPa SSE 3.0mph /  4.8km/h 6.0mph /  9.7km/h 86% 0.00in /  0mm
09:55 80.2 °F /  26.8 °C 74.9 °F /  23.8 °C 30.15in /  1020.9hPa WSW 4.0mph /  6.4km/h 8.0mph /  12.9km/h 84% 0.00in /  0mm
10:00 80.4 °F /  26.9 °C 75.5 °F /  24.2 °C 30.15in /  1020.9hPa West 5.0mph /  8km/h 6.0mph /  9.7km/h 85% 0.00in /  0mm
10:05 80.7 °F /  27.1 °C 76.1 °F /  24.5 °C 30.15in /  1020.9hPa WNW 5.0mph /  8km/h 6.0mph /  9.7km/h 86% 0.00in /  0mm
10:10 81.1 °F /  27.3 °C 75.8 °F /  24.3 °C 30.16in /  1021.2hPa West 3.0mph /  4.8km/h 5.0mph /  8km/h 84% 0.00in /  0mm
10:15 81.1 °F /  27.3 °C 75.4 °F /  24.1 °C 30.15in /  1020.9hPa SW 1.0mph /  1.6km/h 7.0mph /  11.3km/h 83% 0.00in /  0mm
10:20 81.3 °F /  27.4 °C 75.3 °F /  24.1 °C 30.15in /  1020.9hPa West 2.0mph /  3.2km/h 6.0mph /  9.7km/h 82% 0.00in /  0mm
10:25 81.8 °F /  27.7 °C 75.4 °F /  24.1 °C 30.15in /  1020.9hPa WSW 1.0mph /  1.6km/h 4.0mph /  6.4km/h 81% 0.00in /  0mm
10:30 82.4 °F /  28 °C 76.4 °F /  24.7 °C 30.16in /  1021.2hPa SSW 4.0mph /  6.4km/h 4.0mph /  6.4km/h 82% 0.00in /  0mm
10:35 82.6 °F /  28.1 °C 75.4 °F /  24.1 °C 30.15in /  1020.9hPa SSW 2.0mph /  3.2km/h 5.0mph /  8km/h 79% 0.00in /  0mm
10:40 82.9 °F /  28.3 °C 75.7 °F /  24.3 °C 30.15in /  1020.9hPa SSW 3.0mph /  4.8km/h 3.0mph /  4.8km/h 79% 0.00in /  0mm
10:45 83.2 °F /  28.4 °C 75.2 °F /  24 °C 30.15in /  1020.9hPa West 5.0mph /  8km/h 6.0mph /  9.7km/h 77% 0.00in /  0mm
10:50 82.9 °F /  28.3 °C 74.9 °F /  23.8 °C 30.15in /  1020.9hPa SW 2.0mph /  3.2km/h 5.0mph /  8km/h 77% 0.00in /  0mm
10:55 83.2 °F /  28.4 °C 75.2 °F /  24 °C 30.15in /  1020.9hPa South 2.0mph /  3.2km/h 7.0mph /  11.3km/h 77% 0.00in /  0mm
11:00 83.4 °F /  28.6 °C 75.8 °F /  24.3 °C 30.15in /  1020.9hPa SSW 2.0mph /  3.2km/h 4.0mph /  6.4km/h 78% 0.00in /  0mm
11:05 84.0 °F /  28.9 °C 76.0 °F /  24.4 °C 30.15in /  1020.9hPa WSW 2.0mph /  3.2km/h 6.0mph /  9.7km/h 77% 0.00in /  0mm
11:10 84.2 °F /  29 °C 76.6 °F /  24.8 °C 30.15in /  1020.9hPa SSW 3.0mph /  4.8km/h 7.0mph /  11.3km/h 78% 0.00in /  0mm
11:16 84.3 °F /  29.1 °C 75.5 °F /  24.2 °C 30.15in /  1020.9hPa West 2.0mph /  3.2km/h 7.0mph /  11.3km/h 75% 0.00in /  0mm
11:21 84.1 °F /  28.9 °C 74.9 °F /  23.8 °C 30.15in /  1020.9hPa WSW 3.0mph /  4.8km/h 7.0mph /  11.3km/h 74% 0.00in /  0mm
11:26 84.2 °F /  29 °C 76.2 °F /  24.6 °C 30.15in /  1020.9hPa SW 3.0mph /  4.8km/h 7.0mph /  11.3km/h 77% 0.00in /  0mm
11:31 84.4 °F /  29.1 °C 76.4 °F /  24.7 °C 30.15in /  1020.9hPa SE 2.0mph /  3.2km/h 7.0mph /  11.3km/h 77% 0.00in /  0mm
11:36 84.8 °F /  29.3 °C 75.2 °F /  24 °C 30.15in /  1020.9hPa SSW 5.0mph /  8km/h 8.0mph /  12.9km/h 73% 0.00in /  0mm
11:41 84.7 °F /  29.3 °C 75.1 °F /  23.9 °C 30.15in /  1020.9hPa SW 6.0mph /  9.7km/h 8.0mph /  12.9km/h 73% 0.00in /  0mm
11:46 85.1 °F /  29.5 °C 75.1 °F /  23.9 °C 30.14in /  1020.5hPa SW 2.0mph /  3.2km/h 5.0mph /  8km/h 72% 0.00in /  0mm
11:51 85.3 °F /  29.6 °C 74.8 °F /  23.8 °C 30.14in /  1020.5hPa SW 4.0mph /  6.4km/h 9.0mph /  14.5km/h 71% 0.00in /  0mm
11:56 85.7 °F /  29.8 °C 74.8 °F /  23.8 °C 30.14in /  1020.5hPa West 7.0mph /  11.3km/h 7.0mph /  11.3km/h 70% 0.00in /  0mm
12:01 85.5 °F /  29.7 °C 75.4 °F /  24.1 °C 30.13in /  1020.2hPa West 6.0mph /  9.7km/h 9.0mph /  14.5km/h 72% 0.00in /  0mm
12:06 85.8 °F /  29.9 °C 74.0 °F /  23.3 °C 30.14in /  1020.5hPa SSE 5.0mph /  8km/h 8.0mph /  12.9km/h 68% 0.00in /  0mm
12:12 85.7 °F /  29.8 °C 75.2 °F /  24 °C 30.13in /  1020.2hPa WSW 7.0mph /  11.3km/h 8.0mph /  12.9km/h 71% 0.00in /  0mm
12:17 85.6 °F /  29.8 °C 75.5 °F /  24.2 °C 30.14in /  1020.5hPa SW 7.0mph /  11.3km/h 7.0mph /  11.3km/h 72% 0.00in /  0mm
12:22 86.0 °F /  30 °C 75.5 °F /  24.2 °C 30.14in /  1020.5hPa SW 7.0mph /  11.3km/h 9.0mph /  14.5km/h 71% 0.00in /  0mm
12:27 85.8 °F /  29.9 °C 74.5 °F /  23.6 °C 30.13in /  1020.2hPa West 6.0mph /  9.7km/h 8.0mph /  12.9km/h 69% 0.00in /  0mm
12:32 86.3 °F /  30.2 °C 75.4 °F /  24.1 °C 30.13in /  1020.2hPa SSE 4.0mph /  6.4km/h 10.0mph /  16.1km/h 70% 0.00in /  0mm
12:37 86.8 °F /  30.4 °C 76.7 °F /  24.8 °C 30.13in /  1020.2hPa SSE 5.0mph /  8km/h 7.0mph /  11.3km/h 72% 0.00in /  0mm
12:42 86.8 °F /  30.4 °C 75.0 °F /  23.9 °C 30.13in /  1020.2hPa SSW 5.0mph /  8km/h 9.0mph /  14.5km/h 68% 0.00in /  0mm
12:47 87.0 °F /  30.6 °C 74.7 °F /  23.7 °C 30.12in /  1019.9hPa SSW 2.0mph /  3.2km/h 4.0mph /  6.4km/h 67% 0.00in /  0mm
12:52 87.1 °F /  30.6 °C 74.8 °F /  23.8 °C 30.13in /  1020.2hPa SW 2.0mph /  3.2km/h 8.0mph /  12.9km/h 67% 0.00in /  0mm
12:57 87.2 °F /  30.7 °C 74.0 °F /  23.3 °C 30.12in /  1019.9hPa SW 6.0mph /  9.7km/h 6.0mph /  9.7km/h 65% 0.00in /  0mm
13:02 86.9 °F /  30.5 °C 74.6 °F /  23.7 °C 30.12in /  1019.9hPa WSW 5.0mph /  8km/h 9.0mph /  14.5km/h 67% 0.00in /  0mm
13:07 87.1 °F /  30.6 °C 74.8 °F /  23.8 °C 30.12in /  1019.9hPa WSW 8.0mph /  12.9km/h 9.0mph /  14.5km/h 67% 0.00in /  0mm
13:12 87.2 °F /  30.7 °C 75.8 °F /  24.3 °C 30.12in /  1019.9hPa South 4.0mph /  6.4km/h 5.0mph /  8km/h 69% 0.00in /  0mm
13:17 87.6 °F /  30.9 °C 75.7 °F /  24.3 °C 30.12in /  1019.9hPa West 3.0mph /  4.8km/h 6.0mph /  9.7km/h 68% 0.00in /  0mm
13:22 87.6 °F /  30.9 °C 75.3 °F /  24.1 °C 30.12in /  1019.9hPa SE 5.0mph /  8km/h 6.0mph /  9.7km/h 67% 0.00in /  0mm
13:27 87.7 °F /  30.9 °C 75.8 °F /  24.3 °C 30.12in /  1019.9hPa SE 2.0mph /  3.2km/h 6.0mph /  9.7km/h 68% 0.00in /  0mm
13:32 87.7 °F /  30.9 °C 75.4 °F /  24.1 °C 30.12in /  1019.9hPa SSW 1.0mph /  1.6km/h 5.0mph /  8km/h 67% 0.00in /  0mm
13:37 88.0 °F /  31.1 °C 74.3 °F /  23.5 °C 30.12in /  1019.9hPa SW 3.0mph /  4.8km/h 5.0mph /  8km/h 64% 0.00in /  0mm
13:42 87.3 °F /  30.7 °C 73.2 °F /  22.9 °C 30.12in /  1019.9hPa NW 2.0mph /  3.2km/h 5.0mph /  8km/h 63% 0.00in /  0mm
13:47 87.8 °F /  31 °C 74.6 °F /  23.7 °C 30.11in /  1019.5hPa WSW 4.0mph /  6.4km/h 7.0mph /  11.3km/h 65% 0.00in /  0mm
13:52 87.7 °F /  30.9 °C 75.4 °F /  24.1 °C 30.11in /  1019.5hPa WSW 3.0mph /  4.8km/h 6.0mph /  9.7km/h 67% 0.00in /  0mm
13:57 88.0 °F /  31.1 °C 75.7 °F /  24.3 °C 30.11in /  1019.5hPa SW 5.0mph /  8km/h 6.0mph /  9.7km/h 67% 0.00in /  0mm
14:02 88.1 °F /  31.2 °C 73.9 °F /  23.3 °C 30.11in /  1019.5hPa SW 2.0mph /  3.2km/h 7.0mph /  11.3km/h 63% 0.00in /  0mm
14:07 88.5 °F /  31.4 °C 73.3 °F /  22.9 °C 30.10in /  1019.2hPa SW 6.0mph /  9.7km/h 6.0mph /  9.7km/h 61% 0.00in /  0mm
14:12 88.7 °F /  31.5 °C 75.0 °F /  23.9 °C 30.10in /  1019.2hPa WSW 5.0mph /  8km/h 8.0mph /  12.9km/h 64% 0.00in /  0mm
14:17 88.6 °F /  31.4 °C 73.9 °F /  23.3 °C 30.10in /  1019.2hPa SE 8.0mph /  12.9km/h 8.0mph /  12.9km/h 62% 0.00in /  0mm
14:22 88.0 °F /  31.1 °C 74.3 °F /  23.5 °C 30.10in /  1019.2hPa West 2.0mph /  3.2km/h 2.0mph /  3.2km/h 64% 0.00in /  0mm
14:27 87.7 °F /  30.9 °C 75.4 °F /  24.1 °C 30.10in /  1019.2hPa WSW 4.0mph /  6.4km/h 4.0mph /  6.4km/h 67% 0.00in /  0mm
14:32 87.9 °F /  31.1 °C 74.7 °F /  23.7 °C 30.09in /  1018.8hPa WNW 2.0mph /  3.2km/h 4.0mph /  6.4km/h 65% 0.00in /  0mm
14:38 88.5 °F /  31.4 °C 75.2 °F /  24 °C 30.09in /  1018.8hPa SSW 5.0mph /  8km/h 8.0mph /  12.9km/h 65% 0.00in /  0mm
14:43 88.8 °F /  31.6 °C 73.6 °F /  23.1 °C 30.09in /  1018.8hPa SSW 5.0mph /  8km/h 8.0mph /  12.9km/h 61% 0.00in /  0mm
14:48 88.9 °F /  31.6 °C 74.7 °F /  23.7 °C 30.09in /  1018.8hPa SW 1.0mph /  1.6km/h 7.0mph /  11.3km/h 63% 0.00in /  0mm
14:53 89.4 °F /  31.9 °C 75.6 °F /  24.2 °C 30.09in /  1018.8hPa SSE 4.0mph /  6.4km/h 10.0mph /  16.1km/h 64% 0.00in /  0mm
14:58 89.3 °F /  31.8 °C 74.1 °F /  23.4 °C 30.09in /  1018.8hPa South 3.0mph /  4.8km/h 12.0mph /  19.3km/h 61% 0.00in /  0mm
15:03 88.9 °F /  31.6 °C 75.6 °F /  24.2 °C 30.09in /  1018.8hPa WSW 4.0mph /  6.4km/h 7.0mph /  11.3km/h 65% 0.00in /  0mm
15:08 88.4 °F /  31.3 °C 75.1 °F /  23.9 °C 30.08in /  1018.5hPa WSW 3.0mph /  4.8km/h 5.0mph /  8km/h 65% 0.00in /  0mm
15:13 89.1 °F /  31.7 °C 74.4 °F /  23.6 °C 30.08in /  1018.5hPa South 8.0mph /  12.9km/h 9.0mph /  14.5km/h 62% 0.00in /  0mm
15:18 89.1 °F /  31.7 °C 73.9 °F /  23.3 °C 30.08in /  1018.5hPa WSW 2.0mph /  3.2km/h 6.0mph /  9.7km/h 61% 0.00in /  0mm
15:23 89.8 °F /  32.1 °C 76.0 °F /  24.4 °C 30.08in /  1018.5hPa SSW 4.0mph /  6.4km/h 5.0mph /  8km/h 64% 0.00in /  0mm
15:28 90.1 °F /  32.3 °C 76.8 °F /  24.9 °C 30.08in /  1018.5hPa WSW 10.0mph /  16.1km/h 10.0mph /  16.1km/h 65% 0.00in /  0mm
15:33 89.5 °F /  31.9 °C 74.3 °F /  23.5 °C 30.08in /  1018.5hPa SW 7.0mph /  11.3km/h 8.0mph /  12.9km/h 61% 0.00in /  0mm
15:38 89.5 °F /  31.9 °C 73.3 °F /  22.9 °C 30.08in /  1018.5hPa South 3.0mph /  4.8km/h 6.0mph /  9.7km/h 59% 0.00in /  0mm
15:43 89.8 °F /  32.1 °C 74.1 °F /  23.4 °C 30.07in /  1018.2hPa SW 6.0mph /  9.7km/h 7.0mph /  11.3km/h 60% 0.00in /  0mm
15:48 89.5 °F /  31.9 °C 73.3 °F /  22.9 °C 30.08in /  1018.5hPa SSW 3.0mph /  4.8km/h 9.0mph /  14.5km/h 59% 0.00in /  0mm
15:53 89.7 °F /  32.1 °C 74.5 °F /  23.6 °C 30.07in /  1018.2hPa SW 4.0mph /  6.4km/h 6.0mph /  9.7km/h 61% 0.00in /  0mm
15:58 89.8 °F /  32.1 °C 73.1 °F /  22.8 °C 30.07in /  1018.2hPa SSW 4.0mph /  6.4km/h 6.0mph /  9.7km/h 58% 0.00in /  0mm
16:03 89.6 °F /  32 °C 74.4 °F /  23.6 °C 30.06in /  1017.8hPa SW 5.0mph /  8km/h 6.0mph /  9.7km/h 61% 0.00in /  0mm
16:08 89.5 °F /  31.9 °C 75.2 °F /  24 °C 30.06in /  1017.8hPa SW 3.0mph /  4.8km/h 6.0mph /  9.7km/h 63% 0.00in /  0mm
16:13 89.7 °F /  32.1 °C 72.4 °F /  22.4 °C 30.06in /  1017.8hPa SW 9.0mph /  14.5km/h 9.0mph /  14.5km/h 57% 0.00in /  0mm
16:18 89.6 °F /  32 °C 72.4 °F /  22.4 °C 30.06in /  1017.8hPa WSW 3.0mph /  4.8km/h 6.0mph /  9.7km/h 57% 0.00in /  0mm
16:23 89.7 °F /  32.1 °C 73.5 °F /  23.1 °C 30.06in /  1017.8hPa SW 5.0mph /  8km/h 8.0mph /  12.9km/h 59% 0.00in /  0mm
16:28 89.7 °F /  32.1 °C 75.0 °F /  23.9 °C 30.06in /  1017.8hPa SW 2.0mph /  3.2km/h 6.0mph /  9.7km/h 62% 0.00in /  0mm
16:33 89.9 °F /  32.2 °C 74.2 °F /  23.4 °C 30.05in /  1017.5hPa SSW 2.0mph /  3.2km/h 8.0mph /  12.9km/h 60% 0.00in /  0mm
16:38 90.0 °F /  32.2 °C 73.2 °F /  22.9 °C 30.05in /  1017.5hPa South 5.0mph /  8km/h 8.0mph /  12.9km/h 58% 0.00in /  0mm
16:43 90.0 °F /  32.2 °C 73.8 °F /  23.2 °C 30.05in /  1017.5hPa SSW 5.0mph /  8km/h 8.0mph /  12.9km/h 59% 0.00in /  0mm
16:48 90.1 °F /  32.3 °C 74.3 °F /  23.5 °C 30.05in /  1017.5hPa South 3.0mph /  4.8km/h 8.0mph /  12.9km/h 60% 0.00in /  0mm
16:53 90.3 °F /  32.4 °C 75.5 °F /  24.2 °C 30.05in /  1017.5hPa SW 7.0mph /  11.3km/h 8.0mph /  12.9km/h 62% 0.00in /  0mm
16:58 90.3 °F /  32.4 °C 75.5 °F /  24.2 °C 30.05in /  1017.5hPa WSW 6.0mph /  9.7km/h 9.0mph /  14.5km/h 62% 0.00in /  0mm
17:03 90.3 °F /  32.4 °C 74.5 °F /  23.6 °C 30.04in /  1017.2hPa SW 4.0mph /  6.4km/h 8.0mph /  12.9km/h 60% 0.00in /  0mm
17:08 90.6 °F /  32.6 °C 74.8 °F /  23.8 °C 30.05in /  1017.5hPa SSW 5.0mph /  8km/h 9.0mph /  14.5km/h 60% 0.00in /  0mm
17:14 90.5 °F /  32.5 °C 75.2 °F /  24 °C 30.05in /  1017.5hPa SSE 5.0mph /  8km/h 9.0mph /  14.5km/h 61% 0.00in /  0mm
17:19 90.5 °F /  32.5 °C 74.2 °F /  23.4 °C 30.05in /  1017.5hPa WSW 4.0mph /  6.4km/h 7.0mph /  11.3km/h 59% 0.00in /  0mm
17:24 89.9 °F /  32.2 °C 73.7 °F /  23.2 °C 30.04in /  1017.2hPa SSE 3.0mph /  4.8km/h 7.0mph /  11.3km/h 59% 0.00in /  0mm
17:29 90.0 °F /  32.2 °C 74.3 °F /  23.5 °C 30.04in /  1017.2hPa West 4.0mph /  6.4km/h 5.0mph /  8km/h 60% 0.00in /  0mm
17:34 90.0 °F /  32.2 °C 74.3 °F /  23.5 °C 30.04in /  1017.2hPa South 5.0mph /  8km/h 9.0mph /  14.5km/h 60% 0.00in /  0mm
17:39 89.4 °F /  31.9 °C 73.7 °F /  23.2 °C 30.04in /  1017.2hPa SW 5.0mph /  8km/h 7.0mph /  11.3km/h 60% 0.00in /  0mm
17:44 88.9 °F /  31.6 °C 74.2 °F /  23.4 °C 30.04in /  1017.2hPa SW 4.0mph /  6.4km/h 4.0mph /  6.4km/h 62% 0.00in /  0mm
17:49 89.7 °F /  32.1 °C 75.4 °F /  24.1 °C 30.04in /  1017.2hPa SW 3.0mph /  4.8km/h 5.0mph /  8km/h 63% 0.00in /  0mm
17:54 90.3 °F /  32.4 °C 75.0 °F /  23.9 °C 30.04in /  1017.2hPa SSW 3.0mph /  4.8km/h 4.0mph /  6.4km/h 61% 0.00in /  0mm
17:59 90.4 °F /  32.4 °C 74.6 °F /  23.7 °C 30.04in /  1017.2hPa South 7.0mph /  11.3km/h 8.0mph /  12.9km/h 60% 0.00in /  0mm
18:04 90.2 °F /  32.3 °C 73.4 °F /  23 °C 30.04in /  1017.2hPa SW 5.0mph /  8km/h 10.0mph /  16.1km/h 58% 0.00in /  0mm
18:09 90.2 °F /  32.3 °C 74.4 °F /  23.6 °C 30.04in /  1017.2hPa SW 4.0mph /  6.4km/h 6.0mph /  9.7km/h 60% 0.00in /  0mm
18:14 90.1 °F /  32.3 °C 74.8 °F /  23.8 °C 30.04in /  1017.2hPa SW 7.0mph /  11.3km/h 7.0mph /  11.3km/h 61% 0.00in /  0mm
18:19 89.9 °F /  32.2 °C 75.1 °F /  23.9 °C 30.04in /  1017.2hPa SSE 4.0mph /  6.4km/h 6.0mph /  9.7km/h 62% 0.00in /  0mm
18:24 89.4 °F /  31.9 °C 74.7 °F /  23.7 °C 30.03in /  1016.8hPa SSW 3.0mph /  4.8km/h 6.0mph /  9.7km/h 62% 0.00in /  0mm
18:29 88.9 °F /  31.6 °C 75.2 °F /  24 °C 30.03in /  1016.8hPa SSW 2.0mph /  3.2km/h 6.0mph /  9.7km/h 64% 0.00in /  0mm
18:34 89.1 °F /  31.7 °C 74.4 °F /  23.6 °C 30.03in /  1016.8hPa SW 3.0mph /  4.8km/h 8.0mph /  12.9km/h 62% 0.00in /  0mm
18:39 89.5 °F /  31.9 °C 74.8 °F /  23.8 °C 30.03in /  1016.8hPa WSW 6.0mph /  9.7km/h 8.0mph /  12.9km/h 62% 0.00in /  0mm
18:44 89.4 °F /  31.9 °C 73.7 °F /  23.2 °C 30.03in /  1016.8hPa SSW 4.0mph /  6.4km/h 7.0mph /  11.3km/h 60% 0.00in /  0mm
18:49 89.3 °F /  31.8 °C 74.6 °F /  23.7 °C 30.03in /  1016.8hPa SW 3.0mph /  4.8km/h 7.0mph /  11.3km/h 62% 0.00in /  0mm
18:54 89.6 °F /  32 °C 73.9 °F /  23.3 °C 30.03in /  1016.8hPa SW 6.0mph /  9.7km/h 7.0mph /  11.3km/h 60% 0.00in /  0mm
18:59 89.4 °F /  31.9 °C 74.2 °F /  23.4 °C 30.03in /  1016.8hPa SW 4.0mph /  6.4km/h 8.0mph /  12.9km/h 61% 0.00in /  0mm
19:04 89.6 °F /  32 °C 75.3 °F /  24.1 °C 30.03in /  1016.8hPa SSW 4.0mph /  6.4km/h 4.0mph /  6.4km/h 63% 0.00in /  0mm
19:09 89.5 °F /  31.9 °C 74.3 °F /  23.5 °C 30.02in /  1016.5hPa SSW 3.0mph /  4.8km/h 5.0mph /  8km/h 61% 0.00in /  0mm
19:14 89.5 °F /  31.9 °C 74.8 °F /  23.8 °C 30.02in /  1016.5hPa SW 3.0mph /  4.8km/h 6.0mph /  9.7km/h 62% 0.00in /  0mm
19:19 89.4 °F /  31.9 °C 73.7 °F /  23.2 °C 30.02in /  1016.5hPa SW 4.0mph /  6.4km/h 6.0mph /  9.7km/h 60% 0.00in /  0mm
19:24 89.5 °F /  31.9 °C 74.3 °F /  23.5 °C 30.02in /  1016.5hPa SSW 4.0mph /  6.4km/h 4.0mph /  6.4km/h 61% 0.00in /  0mm
19:29 89.2 °F /  31.8 °C 74.0 °F /  23.3 °C 30.03in /  1016.8hPa SSW 3.0mph /  4.8km/h 5.0mph /  8km/h 61% 0.00in /  0mm
19:34 89.2 °F /  31.8 °C 74.5 °F /  23.6 °C 30.03in /  1016.8hPa SSW 3.0mph /  4.8km/h 4.0mph /  6.4km/h 62% 0.00in /  0mm
19:39 89.0 °F /  31.7 °C 74.8 °F /  23.8 °C 30.03in /  1016.8hPa SW 2.0mph /  3.2km/h 4.0mph /  6.4km/h 63% 0.00in /  0mm
19:44 88.9 °F /  31.6 °C 75.2 °F /  24 °C 30.03in /  1016.8hPa SW 3.0mph /  4.8km/h 4.0mph /  6.4km/h 64% 0.00in /  0mm
19:49 88.7 °F /  31.5 °C 75.0 °F /  23.9 °C 30.03in /  1016.8hPa WSW 3.0mph /  4.8km/h 5.0mph /  8km/h 64% 0.00in /  0mm
19:54 88.5 °F /  31.4 °C 74.8 °F /  23.8 °C 30.03in /  1016.8hPa SW 2.0mph /  3.2km/h 3.0mph /  4.8km/h 64% 0.00in /  0mm
19:59 88.4 °F /  31.3 °C 75.1 °F /  23.9 °C 30.03in /  1016.8hPa WSW 3.0mph /  4.8km/h 4.0mph /  6.4km/h 65% 0.00in /  0mm
20:04 88.3 °F /  31.3 °C 75.5 °F /  24.2 °C 30.03in /  1016.8hPa WSW 2.0mph /  3.2km/h 2.0mph /  3.2km/h 66% 0.00in /  0mm
20:09 88.2 °F /  31.2 °C 75.4 °F /  24.1 °C 30.03in /  1016.8hPa WSW 2.0mph /  3.2km/h 3.0mph /  4.8km/h 66% 0.00in /  0mm
20:14 87.9 °F /  31.1 °C 76.0 °F /  24.4 °C 30.03in /  1016.8hPa SW 1.0mph /  1.6km/h 2.0mph /  3.2km/h 68% 0.00in /  0mm
20:19 87.7 °F /  30.9 °C 76.3 °F /  24.6 °C 30.04in /  1017.2hPa SW 1.0mph /  1.6km/h 2.0mph /  3.2km/h 69% 0.00in /  0mm
20:24 87.4 °F /  30.8 °C 76.0 °F /  24.4 °C 30.03in /  1016.8hPa SW 1.0mph /  1.6km/h 2.0mph /  3.2km/h 69% 0.00in /  0mm
20:29 87.0 °F /  30.6 °C 76.0 °F /  24.4 °C 30.03in /  1016.8hPa SW 1.0mph /  1.6km/h 1.0mph /  1.6km/h 70% 0.00in /  0mm
20:34 86.5 °F /  30.3 °C 76.0 °F /  24.4 °C 30.03in /  1016.8hPa SW 1.0mph /  1.6km/h 2.0mph /  3.2km/h 71% 0.00in /  0mm
20:39 86.0 °F /  30 °C 75.9 °F /  24.4 °C 30.03in /  1016.8hPa SW 1.0mph /  1.6km/h 2.0mph /  3.2km/h 72% 0.00in /  0mm
20:44 85.3 °F /  29.6 °C 75.7 °F /  24.3 °C 30.03in /  1016.8hPa SSW 1.0mph /  1.6km/h 2.0mph /  3.2km/h 73% 0.00in /  0mm
20:49 84.7 °F /  29.3 °C 75.5 °F /  24.2 °C 30.03in /  1016.8hPa Calm   1.0mph /  1.6km/h 74% 0.00in /  0mm
20:54 84.1 °F /  28.9 °C 75.3 °F /  24.1 °C 30.03in /  1016.8hPa SSW 1.0mph /  1.6km/h 2.0mph /  3.2km/h 75% 0.00in /  0mm
20:59 83.5 °F /  28.6 °C 75.1 °F /  23.9 °C 30.03in /  1016.8hPa Calm   1.0mph /  1.6km/h 76% 0.00in /  0mm
21:04 83.0 °F /  28.3 °C 75.1 °F /  23.9 °C 30.04in /  1017.2hPa Calm   1.0mph /  1.6km/h 77% 0.00in /  0mm
21:09 82.5 °F /  28.1 °C 74.6 °F /  23.7 °C 30.04in /  1017.2hPa SW 1.0mph /  1.6km/h 2.0mph /  3.2km/h 77% 0.00in /  0mm
21:14 82.0 °F /  27.8 °C 74.5 °F /  23.6 °C 30.03in /  1016.8hPa Calm   2.0mph /  3.2km/h 78% 0.00in /  0mm
21:20 81.8 °F /  27.7 °C 74.3 °F /  23.5 °C 30.04in /  1017.2hPa SW 1.0mph /  1.6km/h 2.0mph /  3.2km/h 78% 0.00in /  0mm
21:25 81.6 °F /  27.6 °C 74.1 °F /  23.4 °C 30.04in /  1017.2hPa SSW 1.0mph /  1.6km/h 2.0mph /  3.2km/h 78% 0.00in /  0mm
21:30 81.4 °F /  27.4 °C 73.9 °F /  23.3 °C 30.04in /  1017.2hPa Calm   2.0mph /  3.2km/h 78% 0.00in /  0mm
21:35 81.1 °F /  27.3 °C 74.0 °F /  23.3 °C 30.04in /  1017.2hPa SW 1.0mph /  1.6km/h 1.0mph /  1.6km/h 79% 0.00in /  0mm
21:40 80.9 °F /  27.2 °C 73.8 °F /  23.2 °C 30.04in /  1017.2hPa SW 1.0mph /  1.6km/h 2.0mph /  3.2km/h 79% 0.00in /  0mm
21:45 80.7 °F /  27.1 °C 73.6 °F /  23.1 °C 30.04in /  1017.2hPa SW 2.0mph /  3.2km/h 3.0mph /  4.8km/h 79% 0.00in /  0mm
21:50 80.6 °F /  27 °C 73.5 °F /  23.1 °C 30.04in /  1017.2hPa WSW 2.0mph /  3.2km/h 3.0mph /  4.8km/h 79% 0.00in /  0mm
21:55 80.6 °F /  27 °C 73.5 °F /  23.1 °C 30.04in /  1017.2hPa SW 1.0mph /  1.6km/h 3.0mph /  4.8km/h 79% 0.00in /  0mm
22:00 80.4 °F /  26.9 °C 73.3 °F /  22.9 °C 30.04in /  1017.2hPa Calm   1.0mph /  1.6km/h 79% 0.00in /  0mm
22:05 80.2 °F /  26.8 °C 73.5 °F /  23.1 °C 30.04in /  1017.2hPa SW 1.0mph /  1.6km/h 1.0mph /  1.6km/h 80% 0.00in /  0mm
22:10 80.0 °F /  26.7 °C 73.3 °F /  22.9 °C 30.04in /  1017.2hPa SW 2.0mph /  3.2km/h 2.0mph /  3.2km/h 80% 0.00in /  0mm
22:15 79.8 °F /  26.6 °C 73.1 °F /  22.8 °C 30.05in /  1017.5hPa WSW 1.0mph /  1.6km/h 2.0mph /  3.2km/h 80% 0.00in /  0mm
22:20 79.7 °F /  26.5 °C 73.4 °F /  23 °C 30.05in /  1017.5hPa SW 2.0mph /  3.2km/h 3.0mph /  4.8km/h 81% 0.00in /  0mm
22:25 79.5 °F /  26.4 °C 73.2 °F /  22.9 °C 30.05in /  1017.5hPa SW 1.0mph /  1.6km/h 3.0mph /  4.8km/h 81% 0.00in /  0mm
22:30 79.3 °F /  26.3 °C 73.0 °F /  22.8 °C 30.05in /  1017.5hPa SW 1.0mph /  1.6km/h 1.0mph /  1.6km/h 81% 0.00in /  0mm
22:35 79.3 °F /  26.3 °C 73.0 °F /  22.8 °C 30.05in /  1017.5hPa West 1.0mph /  1.6km/h 2.0mph /  3.2km/h 81% 0.00in /  0mm
22:40 79.4 °F /  26.3 °C 73.1 °F /  22.8 °C 30.05in /  1017.5hPa Calm   1.0mph /  1.6km/h 81% 0.00in /  0mm
22:45 79.3 °F /  26.3 °C 73.0 °F /  22.8 °C 30.05in /  1017.5hPa SW 1.0mph /  1.6km/h 2.0mph /  3.2km/h 81% 0.00in /  0mm
22:50 79.4 °F /  26.3 °C 73.4 °F /  23 °C 30.05in /  1017.5hPa Calm   1.0mph /  1.6km/h 82% 0.00in /  0mm
22:55 79.2 °F /  26.2 °C 73.2 °F /  22.9 °C 30.05in /  1017.5hPa Calm   1.0mph /  1.6km/h 82% 0.00in /  0mm
23:00 79.0 °F /  26.1 °C 73.0 °F /  22.8 °C 30.05in /  1017.5hPa Calm   1.0mph /  1.6km/h 82% 0.00in /  0mm
23:05 78.8 °F /  26 °C 72.8 °F /  22.7 °C 30.05in /  1017.5hPa Calm     82% 0.00in /  0mm
23:10 78.5 °F /  25.8 °C 72.6 °F /  22.6 °C 30.05in /  1017.5hPa Calm     82% 0.00in /  0mm
23:15 78.2 °F /  25.7 °C 72.6 °F /  22.6 °C 30.05in /  1017.5hPa Calm     83% 0.00in /  0mm
23:20 78.2 °F /  25.7 °C 72.6 °F /  22.6 °C 30.06in /  1017.8hPa Calm     83% 0.00in /  0mm
23:25 78.1 °F /  25.6 °C 72.9 °F /  22.7 °C 30.05in /  1017.5hPa Calm     84% 0.00in /  0mm
23:30 77.9 °F /  25.5 °C 72.7 °F /  22.6 °C 30.05in /  1017.5hPa Calm     84% 0.00in /  0mm
23:35 77.8 °F /  25.4 °C 72.9 °F /  22.7 °C 30.05in /  1017.5hPa Calm     85% 0.00in /  0mm
23:40 77.7 °F /  25.4 °C 72.8 °F /  22.7 °C 30.05in /  1017.5hPa Calm     85% 0.00in /  0mm
23:45 77.5 °F /  25.3 °C 72.6 °F /  22.6 °C 30.05in /  1017.5hPa Calm     85% 0.00in /  0mm
23:50 77.4 °F /  25.2 °C 72.5 °F /  22.5 °C 30.05in /  1017.5hPa Calm     85% 0.00in /  0mm
23:55 77.1 °F /  25.1 °C 72.6 °F /  22.6 °C 30.05in /  1017.5hPa Calm     86% 0.00in /  0mm
Compliments of Weather Underground